sensor_id;sensor_type;location;lat;lon;timestamp;P1;durP1;ratioP1;P2;durP2;ratioP2
5904;SDS011;2978;42.012;24.880;2022-07-29T00:00:59;7.60;;;5.60;;
5904;SDS011;2978;42.012;24.880;2022-07-29T00:03:25;9.77;;;5.40;;
5904;SDS011;2978;42.012;24.880;2022-07-29T00:05:50;8.10;;;6.30;;
5904;SDS011;2978;42.012;24.880;2022-07-29T00:08:18;13.77;;;6.53;;
5904;SDS011;2978;42.012;24.880;2022-07-29T00:10:44;7.97;;;6.50;;
5904;SDS011;2978;42.012;24.880;2022-07-29T00:13:09;7.13;;;5.87;;
5904;SDS011;2978;42.012;24.880;2022-07-29T00:15:35;9.00;;;6.87;;
5904;SDS011;2978;42.012;24.880;2022-07-29T00:18:00;9.33;;;6.40;;
5904;SDS011;2978;42.012;24.880;2022-07-29T00:20:26;8.00;;;6.33;;
5904;SDS011;2978;42.012;24.880;2022-07-29T00:22:51;11.00;;;6.20;;
5904;SDS011;2978;42.012;24.880;2022-07-29T00:25:18;9.27;;;6.23;;
5904;SDS011;2978;42.012;24.880;2022-07-29T00:27:43;11.77;;;7.70;;
5904;SDS011;2978;42.012;24.880;2022-07-29T00:30:10;8.23;;;6.50;;
5904;SDS011;2978;42.012;24.880;2022-07-29T00:32:36;7.23;;;6.33;;
5904;SDS011;2978;42.012;24.880;2022-07-29T00:35:01;7.30;;;6.60;;
5904;SDS011;2978;42.012;24.880;2022-07-29T00:37:46;8.27;;;6.37;;
5904;SDS011;2978;42.012;24.880;2022-07-29T00:40:11;10.00;;;6.27;;
5904;SDS011;2978;42.012;24.880;2022-07-29T00:42:43;12.40;;;6.87;;
5904;SDS011;2978;42.012;24.880;2022-07-29T00:45:09;8.07;;;6.67;;
5904;SDS011;2978;42.012;24.880;2022-07-29T00:47:35;12.53;;;7.13;;
5904;SDS011;2978;42.012;24.880;2022-07-29T00:50:01;9.50;;;6.07;;
5904;SDS011;2978;42.012;24.880;2022-07-29T00:52:26;9.47;;;6.70;;
5904;SDS011;2978;42.012;24.880;2022-07-29T00:54:52;11.70;;;6.43;;
5904;SDS011;2978;42.012;24.880;2022-07-29T00:57:17;9.50;;;6.73;;
5904;SDS011;2978;42.012;24.880;2022-07-29T00:59:43;13.67;;;6.90;;
5904;SDS011;2978;42.012;24.880;2022-07-29T01:02:08;9.87;;;6.23;;
5904;SDS011;2978;42.012;24.880;2022-07-29T01:04:34;8.57;;;6.60;;
5904;SDS011;2978;42.012;24.880;2022-07-29T01:07:03;7.93;;;6.63;;
5904;SDS011;2978;42.012;24.880;2022-07-29T01:09:31;8.70;;;5.50;;
5904;SDS011;2978;42.012;24.880;2022-07-29T01:11:57;7.40;;;6.63;;
5904;SDS011;2978;42.012;24.880;2022-07-29T01:14:24;7.63;;;5.70;;
5904;SDS011;2978;42.012;24.880;2022-07-29T01:17:00;7.40;;;6.17;;
5904;SDS011;2978;42.012;24.880;2022-07-29T01:19:33;7.20;;;5.57;;
5904;SDS011;2978;42.012;24.880;2022-07-29T01:22:13;9.33;;;6.70;;
5904;SDS011;2978;42.012;24.880;2022-07-29T01:28:14;7.63;;;5.57;;
5904;SDS011;2978;42.012;24.880;2022-07-29T01:30:50;7.60;;;6.60;;
5904;SDS011;2978;42.012;24.880;2022-07-29T01:33:17;7.17;;;5.70;;
5904;SDS011;2978;42.012;24.880;2022-07-29T01:36:07;9.57;;;6.07;;
5904;SDS011;2978;42.012;24.880;2022-07-29T01:38:38;9.37;;;5.50;;
5904;SDS011;2978;42.012;24.880;2022-07-29T01:41:08;8.07;;;6.00;;
5904;SDS011;2978;42.012;24.880;2022-07-29T01:43:42;8.50;;;5.60;;
5904;SDS011;2978;42.012;24.880;2022-07-29T01:46:14;7.93;;;6.13;;
5904;SDS011;2978;42.012;24.880;2022-07-29T01:48:50;11.77;;;5.90;;
5904;SDS011;2978;42.012;24.880;2022-07-29T01:51:29;8.10;;;6.43;;
5904;SDS011;2978;42.012;24.880;2022-07-29T01:54:06;12.00;;;5.83;;
5904;SDS011;2978;42.012;24.880;2022-07-29T01:56:39;8.30;;;6.10;;
5904;SDS011;2978;42.012;24.880;2022-07-29T01:59:07;8.63;;;6.00;;
5904;SDS011;2978;42.012;24.880;2022-07-29T02:01:34;8.57;;;6.27;;
5904;SDS011;2978;42.012;24.880;2022-07-29T02:04:02;8.60;;;5.80;;
5904;SDS011;2978;42.012;24.880;2022-07-29T02:06:30;7.47;;;5.90;;
5904;SDS011;2978;42.012;24.880;2022-07-29T02:08:58;8.83;;;5.77;;
5904;SDS011;2978;42.012;24.880;2022-07-29T02:11:26;9.53;;;6.63;;
5904;SDS011;2978;42.012;24.880;2022-07-29T02:13:54;7.10;;;5.40;;
5904;SDS011;2978;42.012;24.880;2022-07-29T02:16:22;6.30;;;5.60;;
5904;SDS011;2978;42.012;24.880;2022-07-29T02:18:52;8.83;;;5.90;;
5904;SDS011;2978;42.012;24.880;2022-07-29T02:21:19;8.13;;;5.43;;
5904;SDS011;2978;42.012;24.880;2022-07-29T02:23:48;9.57;;;5.70;;
5904;SDS011;2978;42.012;24.880;2022-07-29T02:26:14;6.53;;;5.23;;
5904;SDS011;2978;42.012;24.880;2022-07-29T02:28:41;8.40;;;5.60;;
5904;SDS011;2978;42.012;24.880;2022-07-29T02:31:08;9.83;;;5.60;;
5904;SDS011;2978;42.012;24.880;2022-07-29T02:33:34;9.40;;;6.17;;
5904;SDS011;2978;42.012;24.880;2022-07-29T02:36:00;8.30;;;6.10;;
5904;SDS011;2978;42.012;24.880;2022-07-29T02:38:27;8.03;;;5.80;;
5904;SDS011;2978;42.012;24.880;2022-07-29T02:41:15;8.13;;;6.20;;
5904;SDS011;2978;42.012;24.880;2022-07-29T02:43:48;7.23;;;6.10;;
5904;SDS011;2978;42.012;24.880;2022-07-29T02:46:19;7.40;;;5.83;;
5904;SDS011;2978;42.012;24.880;2022-07-29T02:48:51;6.50;;;5.27;;
5904;SDS011;2978;42.012;24.880;2022-07-29T02:51:25;8.00;;;6.13;;
5904;SDS011;2978;42.012;24.880;2022-07-29T02:53:57;18.23;;;5.70;;
5904;SDS011;2978;42.012;24.880;2022-07-29T02:56:29;7.47;;;6.10;;
5904;SDS011;2978;42.012;24.880;2022-07-29T02:59:00;8.20;;;6.00;;
5904;SDS011;2978;42.012;24.880;2022-07-29T03:01:31;6.90;;;5.80;;
5904;SDS011;2978;42.012;24.880;2022-07-29T03:03:57;13.63;;;6.00;;
5904;SDS011;2978;42.012;24.880;2022-07-29T03:06:28;6.53;;;5.57;;
5904;SDS011;2978;42.012;24.880;2022-07-29T03:08:55;8.63;;;5.83;;
5904;SDS011;2978;42.012;24.880;2022-07-29T03:11:22;10.70;;;5.70;;
5904;SDS011;2978;42.012;24.880;2022-07-29T03:13:49;12.23;;;6.20;;
5904;SDS011;2978;42.012;24.880;2022-07-29T03:16:15;7.33;;;5.90;;
5904;SDS011;2978;42.012;24.880;2022-07-29T03:18:42;7.40;;;5.80;;
5904;SDS011;2978;42.012;24.880;2022-07-29T03:21:08;6.30;;;5.70;;
5904;SDS011;2978;42.012;24.880;2022-07-29T03:23:34;9.00;;;5.73;;
5904;SDS011;2978;42.012;24.880;2022-07-29T03:26:00;7.93;;;5.60;;
5904;SDS011;2978;42.012;24.880;2022-07-29T03:28:25;8.07;;;5.87;;
5904;SDS011;2978;42.012;24.880;2022-07-29T03:30:52;7.20;;;5.90;;
5904;SDS011;2978;42.012;24.880;2022-07-29T03:33:18;8.30;;;6.53;;
5904;SDS011;2978;42.012;24.880;2022-07-29T03:36:03;8.33;;;6.67;;
5904;SDS011;2978;42.012;24.880;2022-07-29T03:38:29;9.23;;;6.43;;
5904;SDS011;2978;42.012;24.880;2022-07-29T03:41:03;10.10;;;6.13;;
5904;SDS011;2978;42.012;24.880;2022-07-29T03:43:34;10.30;;;6.20;;
5904;SDS011;2978;42.012;24.880;2022-07-29T03:46:02;8.07;;;5.70;;
5904;SDS011;2978;42.012;24.880;2022-07-29T03:48:32;9.10;;;6.00;;
5904;SDS011;2978;42.012;24.880;2022-07-29T03:51:00;7.87;;;6.87;;
5904;SDS011;2978;42.012;24.880;2022-07-29T03:53:26;11.73;;;6.03;;
5904;SDS011;2978;42.012;24.880;2022-07-29T03:55:53;15.53;;;6.10;;
5904;SDS011;2978;42.012;24.880;2022-07-29T03:58:22;7.17;;;5.80;;
5904;SDS011;2978;42.012;24.880;2022-07-29T04:00:51;10.83;;;6.03;;
5904;SDS011;2978;42.012;24.880;2022-07-29T04:03:17;8.47;;;5.90;;
5904;SDS011;2978;42.012;24.880;2022-07-29T04:05:43;9.17;;;5.60;;
5904;SDS011;2978;42.012;24.880;2022-07-29T04:08:09;9.40;;;6.60;;
5904;SDS011;2978;42.012;24.880;2022-07-29T04:10:34;9.73;;;6.40;;
5904;SDS011;2978;42.012;24.880;2022-07-29T04:13:00;7.20;;;5.20;;
5904;SDS011;2978;42.012;24.880;2022-07-29T04:15:25;11.17;;;6.20;;
5904;SDS011;2978;42.012;24.880;2022-07-29T04:17:53;6.83;;;5.90;;
5904;SDS011;2978;42.012;24.880;2022-07-29T04:20:19;6.43;;;5.00;;
5904;SDS011;2978;42.012;24.880;2022-07-29T04:22:44;5.77;;;4.97;;
5904;SDS011;2978;42.012;24.880;2022-07-29T04:25:10;7.43;;;5.87;;
5904;SDS011;2978;42.012;24.880;2022-07-29T04:27:35;9.10;;;5.60;;
5904;SDS011;2978;42.012;24.880;2022-07-29T04:30:20;10.97;;;5.63;;
5904;SDS011;2978;42.012;24.880;2022-07-29T04:32:46;15.13;;;7.87;;
5904;SDS011;2978;42.012;24.880;2022-07-29T04:35:11;14.27;;;7.40;;
5904;SDS011;2978;42.012;24.880;2022-07-29T04:37:37;12.13;;;8.20;;
5904;SDS011;2978;42.012;24.880;2022-07-29T04:40:02;13.43;;;6.57;;
5904;SDS011;2978;42.012;24.880;2022-07-29T04:42:28;11.00;;;5.90;;
5904;SDS011;2978;42.012;24.880;2022-07-29T04:44:54;7.60;;;5.10;;
5904;SDS011;2978;42.012;24.880;2022-07-29T04:47:19;9.67;;;5.40;;
5904;SDS011;2978;42.012;24.880;2022-07-29T04:49:44;6.97;;;5.93;;
5904;SDS011;2978;42.012;24.880;2022-07-29T04:52:10;12.03;;;6.03;;
5904;SDS011;2978;42.012;24.880;2022-07-29T04:54:35;5.77;;;4.57;;
5904;SDS011;2978;42.012;24.880;2022-07-29T04:57:01;10.77;;;5.90;;
5904;SDS011;2978;42.012;24.880;2022-07-29T04:59:26;8.07;;;5.60;;
5904;SDS011;2978;42.012;24.880;2022-07-29T05:01:52;9.60;;;4.67;;
5904;SDS011;2978;42.012;24.880;2022-07-29T05:04:17;7.43;;;5.60;;
5904;SDS011;2978;42.012;24.880;2022-07-29T05:06:42;7.03;;;5.07;;
5904;SDS011;2978;42.012;24.880;2022-07-29T05:09:08;13.83;;;5.40;;
5904;SDS011;2978;42.012;24.880;2022-07-29T05:11:33;7.40;;;4.90;;
5904;SDS011;2978;42.012;24.880;2022-07-29T05:13:59;13.33;;;5.10;;
5904;SDS011;2978;42.012;24.880;2022-07-29T05:16:24;8.97;;;5.30;;
5904;SDS011;2978;42.012;24.880;2022-07-29T05:18:49;8.80;;;5.03;;
5904;SDS011;2978;42.012;24.880;2022-07-29T05:21:15;9.27;;;5.00;;
5904;SDS011;2978;42.012;24.880;2022-07-29T05:23:40;5.83;;;4.80;;
5904;SDS011;2978;42.012;24.880;2022-07-29T05:26:06;6.30;;;5.07;;
5904;SDS011;2978;42.012;24.880;2022-07-29T05:28:34;9.83;;;5.50;;
5904;SDS011;2978;42.012;24.880;2022-07-29T05:31:00;15.57;;;5.40;;
5904;SDS011;2978;42.012;24.880;2022-07-29T05:33:25;11.10;;;6.07;;
5904;SDS011;2978;42.012;24.880;2022-07-29T05:35:51;26.00;;;6.00;;
5904;SDS011;2978;42.012;24.880;2022-07-29T05:38:16;7.63;;;5.00;;
5904;SDS011;2978;42.012;24.880;2022-07-29T05:40:41;8.80;;;5.97;;
5904;SDS011;2978;42.012;24.880;2022-07-29T05:43:07;6.20;;;4.50;;
5904;SDS011;2978;42.012;24.880;2022-07-29T05:45:32;5.87;;;4.43;;
5904;SDS011;2978;42.012;24.880;2022-07-29T05:47:58;8.03;;;4.50;;
5904;SDS011;2978;42.012;24.880;2022-07-29T05:50:23;9.20;;;4.90;;
5904;SDS011;2978;42.012;24.880;2022-07-29T05:52:49;10.43;;;5.10;;
5904;SDS011;2978;42.012;24.880;2022-07-29T05:55:15;5.70;;;4.80;;
5904;SDS011;2978;42.012;24.880;2022-07-29T05:57:40;8.97;;;4.73;;
5904;SDS011;2978;42.012;24.880;2022-07-29T06:00:06;13.23;;;5.37;;
5904;SDS011;2978;42.012;24.880;2022-07-29T06:02:32;9.00;;;5.40;;
5904;SDS011;2978;42.012;24.880;2022-07-29T06:04:58;8.77;;;4.80;;
5904;SDS011;2978;42.012;24.880;2022-07-29T06:07:23;8.20;;;5.10;;
5904;SDS011;2978;42.012;24.880;2022-07-29T06:09:49;6.07;;;5.13;;
5904;SDS011;2978;42.012;24.880;2022-07-29T06:12:14;10.50;;;5.83;;
5904;SDS011;2978;42.012;24.880;2022-07-29T06:14:39;6.40;;;4.20;;
5904;SDS011;2978;42.012;24.880;2022-07-29T06:17:05;7.33;;;5.27;;
5904;SDS011;2978;42.012;24.880;2022-07-29T06:19:31;12.63;;;4.30;;
5904;SDS011;2978;42.012;24.880;2022-07-29T06:21:58;8.87;;;5.33;;
5904;SDS011;2978;42.012;24.880;2022-07-29T06:24:24;7.40;;;4.87;;
5904;SDS011;2978;42.012;24.880;2022-07-29T06:26:49;5.70;;;4.60;;
5904;SDS011;2978;42.012;24.880;2022-07-29T06:29:14;8.27;;;5.40;;
5904;SDS011;2978;42.012;24.880;2022-07-29T06:31:40;8.00;;;4.50;;
5904;SDS011;2978;42.012;24.880;2022-07-29T06:34:06;12.10;;;5.30;;
5904;SDS011;2978;42.012;24.880;2022-07-29T06:36:34;5.43;;;4.00;;
5904;SDS011;2978;42.012;24.880;2022-07-29T06:39:00;6.27;;;4.47;;
5904;SDS011;2978;42.012;24.880;2022-07-29T06:41:26;6.57;;;5.10;;
5904;SDS011;2978;42.012;24.880;2022-07-29T06:43:51;6.60;;;4.87;;
5904;SDS011;2978;42.012;24.880;2022-07-29T06:46:17;9.73;;;5.10;;
5904;SDS011;2978;42.012;24.880;2022-07-29T06:48:44;10.80;;;6.10;;
5904;SDS011;2978;42.012;24.880;2022-07-29T06:51:10;11.20;;;5.10;;
5904;SDS011;2978;42.012;24.880;2022-07-29T06:53:36;8.57;;;6.10;;
5904;SDS011;2978;42.012;24.880;2022-07-29T06:56:03;8.17;;;4.87;;
5904;SDS011;2978;42.012;24.880;2022-07-29T06:58:29;6.77;;;4.00;;
5904;SDS011;2978;42.012;24.880;2022-07-29T07:00:55;8.83;;;5.20;;
5904;SDS011;2978;42.012;24.880;2022-07-29T07:03:21;6.10;;;4.07;;
5904;SDS011;2978;42.012;24.880;2022-07-29T07:05:47;5.30;;;3.53;;
5904;SDS011;2978;42.012;24.880;2022-07-29T07:08:13;4.60;;;3.00;;
5904;SDS011;2978;42.012;24.880;2022-07-29T07:10:41;6.90;;;3.47;;
5904;SDS011;2978;42.012;24.880;2022-07-29T07:13:07;11.13;;;4.00;;
5904;SDS011;2978;42.012;24.880;2022-07-29T07:15:32;10.13;;;4.37;;
5904;SDS011;2978;42.012;24.880;2022-07-29T07:17:58;6.47;;;3.70;;
5904;SDS011;2978;42.012;24.880;2022-07-29T07:20:24;8.80;;;4.00;;
5904;SDS011;2978;42.012;24.880;2022-07-29T07:22:50;6.73;;;3.70;;
5904;SDS011;2978;42.012;24.880;2022-07-29T07:25:15;15.63;;;4.17;;
5904;SDS011;2978;42.012;24.880;2022-07-29T07:27:42;11.80;;;4.80;;
5904;SDS011;2978;42.012;24.880;2022-07-29T07:30:08;8.10;;;4.17;;
5904;SDS011;2978;42.012;24.880;2022-07-29T07:32:34;6.63;;;4.30;;
5904;SDS011;2978;42.012;24.880;2022-07-29T07:35:00;8.03;;;4.50;;
5904;SDS011;2978;42.012;24.880;2022-07-29T07:37:26;12.87;;;4.77;;
5904;SDS011;2978;42.012;24.880;2022-07-29T07:39:52;6.50;;;3.87;;
5904;SDS011;2978;42.012;24.880;2022-07-29T07:42:18;5.77;;;3.90;;
5904;SDS011;2978;42.012;24.880;2022-07-29T07:44:44;5.50;;;3.93;;
5904;SDS011;2978;42.012;24.880;2022-07-29T07:47:11;6.70;;;4.50;;
5904;SDS011;2978;42.012;24.880;2022-07-29T07:49:37;8.70;;;4.07;;
5904;SDS011;2978;42.012;24.880;2022-07-29T07:52:02;6.90;;;4.27;;
5904;SDS011;2978;42.012;24.880;2022-07-29T07:54:28;7.03;;;3.80;;
5904;SDS011;2978;42.012;24.880;2022-07-29T07:56:53;6.80;;;4.00;;
5904;SDS011;2978;42.012;24.880;2022-07-29T07:59:19;9.17;;;4.60;;
5904;SDS011;2978;42.012;24.880;2022-07-29T08:01:44;6.23;;;4.00;;
5904;SDS011;2978;42.012;24.880;2022-07-29T08:04:10;7.13;;;3.60;;
5904;SDS011;2978;42.012;24.880;2022-07-29T08:06:35;4.03;;;2.90;;
5904;SDS011;2978;42.012;24.880;2022-07-29T08:09:02;7.10;;;4.07;;
5904;SDS011;2978;42.012;24.880;2022-07-29T08:11:28;4.20;;;3.43;;
5904;SDS011;2978;42.012;24.880;2022-07-29T08:13:54;5.80;;;3.70;;
5904;SDS011;2978;42.012;24.880;2022-07-29T08:16:19;5.10;;;3.43;;
5904;SDS011;2978;42.012;24.880;2022-07-29T08:18:45;7.03;;;3.80;;
5904;SDS011;2978;42.012;24.880;2022-07-29T08:21:11;6.67;;;3.93;;
5904;SDS011;2978;42.012;24.880;2022-07-29T08:23:38;7.53;;;3.20;;
5904;SDS011;2978;42.012;24.880;2022-07-29T08:26:06;6.40;;;3.17;;
5904;SDS011;2978;42.012;24.880;2022-07-29T08:28:35;3.57;;;2.87;;
5904;SDS011;2978;42.012;24.880;2022-07-29T08:31:02;3.53;;;2.50;;
5904;SDS011;2978;42.012;24.880;2022-07-29T08:33:27;4.23;;;3.30;;
5904;SDS011;2978;42.012;24.880;2022-07-29T08:35:53;4.37;;;2.50;;
5904;SDS011;2978;42.012;24.880;2022-07-29T08:38:18;5.53;;;3.40;;
5904;SDS011;2978;42.012;24.880;2022-07-29T08:40:44;3.83;;;2.83;;
5904;SDS011;2978;42.012;24.880;2022-07-29T08:43:10;5.30;;;2.60;;
5904;SDS011;2978;42.012;24.880;2022-07-29T08:45:41;5.63;;;3.00;;
5904;SDS011;2978;42.012;24.880;2022-07-29T08:48:10;3.77;;;2.40;;
5904;SDS011;2978;42.012;24.880;2022-07-29T08:50:41;3.73;;;2.50;;
5904;SDS011;2978;42.012;24.880;2022-07-29T08:53:07;2.70;;;2.00;;
5904;SDS011;2978;42.012;24.880;2022-07-29T08:55:38;6.90;;;2.70;;
5904;SDS011;2978;42.012;24.880;2022-07-29T08:58:05;5.20;;;2.73;;
5904;SDS011;2978;42.012;24.880;2022-07-29T09:00:32;13.83;;;2.50;;
5904;SDS011;2978;42.012;24.880;2022-07-29T09:03:00;5.00;;;2.33;;
5904;SDS011;2978;42.012;24.880;2022-07-29T09:05:27;3.80;;;2.37;;
5904;SDS011;2978;42.012;24.880;2022-07-29T09:07:53;4.37;;;2.40;;
5904;SDS011;2978;42.012;24.880;2022-07-29T09:10:19;3.30;;;2.80;;
5904;SDS011;2978;42.012;24.880;2022-07-29T09:12:45;4.53;;;3.10;;
5904;SDS011;2978;42.012;24.880;2022-07-29T09:15:11;3.40;;;2.20;;
5904;SDS011;2978;42.012;24.880;2022-07-29T09:17:43;3.33;;;2.10;;
5904;SDS011;2978;42.012;24.880;2022-07-29T09:20:11;5.27;;;3.00;;
5904;SDS011;2978;42.012;24.880;2022-07-29T09:22:39;4.53;;;3.20;;
5904;SDS011;2978;42.012;24.880;2022-07-29T09:25:05;4.47;;;2.30;;
5904;SDS011;2978;42.012;24.880;2022-07-29T09:27:31;4.60;;;2.20;;
5904;SDS011;2978;42.012;24.880;2022-07-29T09:30:01;2.70;;;2.10;;
5904;SDS011;2978;42.012;24.880;2022-07-29T09:32:31;7.03;;;2.20;;
5904;SDS011;2978;42.012;24.880;2022-07-29T09:35:16;7.90;;;2.53;;
5904;SDS011;2978;42.012;24.880;2022-07-29T09:37:46;3.40;;;2.40;;
5904;SDS011;2978;42.012;24.880;2022-07-29T09:40:16;3.10;;;2.27;;
5904;SDS011;2978;42.012;24.880;2022-07-29T09:42:44;4.30;;;2.50;;
5904;SDS011;2978;42.012;24.880;2022-07-29T09:45:11;4.17;;;2.40;;
5904;SDS011;2978;42.012;24.880;2022-07-29T09:47:41;10.30;;;2.60;;
5904;SDS011;2978;42.012;24.880;2022-07-29T09:50:10;3.00;;;2.13;;
5904;SDS011;2978;42.012;24.880;2022-07-29T09:52:52;2.90;;;2.20;;
5904;SDS011;2978;42.012;24.880;2022-07-29T09:55:20;4.60;;;2.07;;
5904;SDS011;2978;42.012;24.880;2022-07-29T09:57:46;3.00;;;2.20;;
5904;SDS011;2978;42.012;24.880;2022-07-29T10:00:13;3.40;;;2.40;;
5904;SDS011;2978;42.012;24.880;2022-07-29T10:02:44;3.10;;;2.00;;
5904;SDS011;2978;42.012;24.880;2022-07-29T10:05:18;4.53;;;2.70;;
5904;SDS011;2978;42.012;24.880;2022-07-29T10:07:49;3.50;;;2.47;;
5904;SDS011;2978;42.012;24.880;2022-07-29T10:10:25;4.63;;;2.30;;
5904;SDS011;2978;42.012;24.880;2022-07-29T10:13:03;6.00;;;2.70;;
5904;SDS011;2978;42.012;24.880;2022-07-29T10:15:31;5.80;;;2.90;;
5904;SDS011;2978;42.012;24.880;2022-07-29T10:18:02;7.30;;;2.97;;
5904;SDS011;2978;42.012;24.880;2022-07-29T10:20:27;5.00;;;2.60;;
5904;SDS011;2978;42.012;24.880;2022-07-29T10:22:53;3.00;;;2.50;;
5904;SDS011;2978;42.012;24.880;2022-07-29T10:25:20;3.10;;;2.50;;
5904;SDS011;2978;42.012;24.880;2022-07-29T10:27:47;5.17;;;2.90;;
5904;SDS011;2978;42.012;24.880;2022-07-29T10:30:13;4.47;;;2.37;;
5904;SDS011;2978;42.012;24.880;2022-07-29T10:32:51;9.23;;;2.80;;
5904;SDS011;2978;42.012;24.880;2022-07-29T10:38:48;6.00;;;2.50;;
5904;SDS011;2978;42.012;24.880;2022-07-29T10:41:55;4.00;;;2.20;;
5904;SDS011;2978;42.012;24.880;2022-07-29T10:44:31;3.73;;;2.47;;
5904;SDS011;2978;42.012;24.880;2022-07-29T10:46:58;3.77;;;2.10;;
5904;SDS011;2978;42.012;24.880;2022-07-29T10:49:27;3.70;;;2.27;;
5904;SDS011;2978;42.012;24.880;2022-07-29T10:51:56;4.17;;;2.30;;
5904;SDS011;2978;42.012;24.880;2022-07-29T10:59:38;3.73;;;2.50;;
5904;SDS011;2978;42.012;24.880;2022-07-29T11:07:27;6.23;;;2.47;;
5904;SDS011;2978;42.012;24.880;2022-07-29T11:15:12;4.20;;;2.40;;
5904;SDS011;2978;42.012;24.880;2022-07-29T11:18:07;4.00;;;2.87;;
5904;SDS011;2978;42.012;24.880;2022-07-29T11:23:00;3.20;;;2.47;;
5904;SDS011;2978;42.012;24.880;2022-07-29T11:25:26;4.77;;;3.47;;
5904;SDS011;2978;42.012;24.880;2022-07-29T11:27:52;5.63;;;2.27;;
5904;SDS011;2978;42.012;24.880;2022-07-29T11:30:19;8.77;;;2.33;;
5904;SDS011;2978;42.012;24.880;2022-07-29T11:32:45;3.67;;;2.20;;
5904;SDS011;2978;42.012;24.880;2022-07-29T11:37:37;5.00;;;2.50;;
5904;SDS011;2978;42.012;24.880;2022-07-29T11:47:33;4.70;;;3.00;;
5904;SDS011;2978;42.012;24.880;2022-07-29T11:50:01;3.40;;;2.70;;
5904;SDS011;2978;42.012;24.880;2022-07-29T11:52:32;4.53;;;2.40;;
5904;SDS011;2978;42.012;24.880;2022-07-29T11:54:59;5.13;;;3.17;;
5904;SDS011;2978;42.012;24.880;2022-07-29T11:57:27;5.20;;;2.53;;
5904;SDS011;2978;42.012;24.880;2022-07-29T11:59:53;4.70;;;3.10;;
5904;SDS011;2978;42.012;24.880;2022-07-29T12:02:20;3.63;;;2.60;;
5904;SDS011;2978;42.012;24.880;2022-07-29T12:04:52;4.37;;;2.83;;
5904;SDS011;2978;42.012;24.880;2022-07-29T12:07:29;5.40;;;2.50;;
5904;SDS011;2978;42.012;24.880;2022-07-29T12:09:55;3.53;;;2.27;;
5904;SDS011;2978;42.012;24.880;2022-07-29T12:12:22;7.77;;;2.97;;
5904;SDS011;2978;42.012;24.880;2022-07-29T12:14:48;4.40;;;2.67;;
5904;SDS011;2978;42.012;24.880;2022-07-29T12:17:26;4.90;;;2.90;;
5904;SDS011;2978;42.012;24.880;2022-07-29T12:19:56;3.77;;;2.63;;
5904;SDS011;2978;42.012;24.880;2022-07-29T12:22:29;4.23;;;2.40;;
5904;SDS011;2978;42.012;24.880;2022-07-29T12:25:00;3.80;;;2.40;;
5904;SDS011;2978;42.012;24.880;2022-07-29T12:27:28;4.33;;;2.80;;
5904;SDS011;2978;42.012;24.880;2022-07-29T12:29:57;5.60;;;2.40;;
5904;SDS011;2978;42.012;24.880;2022-07-29T12:32:30;4.87;;;2.53;;
5904;SDS011;2978;42.012;24.880;2022-07-29T12:34:58;5.90;;;3.40;;
5904;SDS011;2978;42.012;24.880;2022-07-29T12:37:24;6.00;;;3.60;;
5904;SDS011;2978;42.012;24.880;2022-07-29T12:39:50;8.70;;;2.63;;
5904;SDS011;2978;42.012;24.880;2022-07-29T12:42:15;3.50;;;2.43;;
5904;SDS011;2978;42.012;24.880;2022-07-29T12:44:49;4.17;;;2.90;;
5904;SDS011;2978;42.012;24.880;2022-07-29T12:47:15;7.47;;;2.33;;
5904;SDS011;2978;42.012;24.880;2022-07-29T12:49:43;6.00;;;2.57;;
5904;SDS011;2978;42.012;24.880;2022-07-29T12:52:29;3.87;;;2.70;;
5904;SDS011;2978;42.012;24.880;2022-07-29T12:54:57;4.90;;;2.80;;
5904;SDS011;2978;42.012;24.880;2022-07-29T12:57:23;8.63;;;2.80;;
5904;SDS011;2978;42.012;24.880;2022-07-29T13:00:08;3.60;;;2.57;;
5904;SDS011;2978;42.012;24.880;2022-07-29T13:02:36;5.27;;;2.47;;
5904;SDS011;2978;42.012;24.880;2022-07-29T13:05:04;4.33;;;2.50;;
5904;SDS011;2978;42.012;24.880;2022-07-29T13:07:31;4.53;;;2.73;;
5904;SDS011;2978;42.012;24.880;2022-07-29T13:10:10;7.10;;;2.80;;
5904;SDS011;2978;42.012;24.880;2022-07-29T13:12:38;4.97;;;3.00;;
5904;SDS011;2978;42.012;24.880;2022-07-29T13:15:13;6.37;;;3.03;;
5904;SDS011;2978;42.012;24.880;2022-07-29T13:17:41;7.37;;;3.23;;
5904;SDS011;2978;42.012;24.880;2022-07-29T13:20:09;5.40;;;3.37;;
5904;SDS011;2978;42.012;24.880;2022-07-29T13:22:37;6.50;;;2.90;;
5904;SDS011;2978;42.012;24.880;2022-07-29T13:25:04;6.83;;;3.13;;
5904;SDS011;2978;42.012;24.880;2022-07-29T13:27:33;6.50;;;2.80;;
5904;SDS011;2978;42.012;24.880;2022-07-29T13:30:02;6.63;;;2.80;;
5904;SDS011;2978;42.012;24.880;2022-07-29T13:32:30;4.60;;;3.33;;
5904;SDS011;2978;42.012;24.880;2022-07-29T13:34:57;4.50;;;2.83;;
5904;SDS011;2978;42.012;24.880;2022-07-29T13:37:25;7.17;;;3.33;;
5904;SDS011;2978;42.012;24.880;2022-07-29T13:39:51;6.83;;;3.10;;
5904;SDS011;2978;42.012;24.880;2022-07-29T13:42:17;8.23;;;2.60;;
5904;SDS011;2978;42.012;24.880;2022-07-29T13:44:43;4.87;;;3.00;;
5904;SDS011;2978;42.012;24.880;2022-07-29T13:47:09;7.10;;;3.30;;
5904;SDS011;2978;42.012;24.880;2022-07-29T13:49:34;7.40;;;3.70;;
5904;SDS011;2978;42.012;24.880;2022-07-29T13:52:00;8.73;;;3.50;;
5904;SDS011;2978;42.012;24.880;2022-07-29T13:54:26;5.57;;;3.03;;
5904;SDS011;2978;42.012;24.880;2022-07-29T13:56:51;5.07;;;2.73;;
5904;SDS011;2978;42.012;24.880;2022-07-29T13:59:17;4.00;;;2.80;;
5904;SDS011;2978;42.012;24.880;2022-07-29T14:01:43;5.93;;;3.10;;
5904;SDS011;2978;42.012;24.880;2022-07-29T14:04:09;7.17;;;2.50;;
5904;SDS011;2978;42.012;24.880;2022-07-29T14:06:36;3.57;;;2.17;;
5904;SDS011;2978;42.012;24.880;2022-07-29T14:09:02;4.60;;;2.97;;
5904;SDS011;2978;42.012;24.880;2022-07-29T14:11:31;6.17;;;2.50;;
5904;SDS011;2978;42.012;24.880;2022-07-29T14:13:57;6.07;;;2.60;;
5904;SDS011;2978;42.012;24.880;2022-07-29T14:16:22;4.60;;;3.03;;
5904;SDS011;2978;42.012;24.880;2022-07-29T14:18:48;5.00;;;2.43;;
5904;SDS011;2978;42.012;24.880;2022-07-29T14:21:13;13.20;;;3.90;;
5904;SDS011;2978;42.012;24.880;2022-07-29T14:23:39;4.73;;;2.70;;
5904;SDS011;2978;42.012;24.880;2022-07-29T14:26:04;3.17;;;2.23;;
5904;SDS011;2978;42.012;24.880;2022-07-29T14:28:30;4.30;;;2.10;;
5904;SDS011;2978;42.012;24.880;2022-07-29T14:30:55;3.87;;;2.27;;
5904;SDS011;2978;42.012;24.880;2022-07-29T14:33:21;3.13;;;2.37;;
5904;SDS011;2978;42.012;24.880;2022-07-29T14:35:46;6.90;;;2.60;;
5904;SDS011;2978;42.012;24.880;2022-07-29T14:38:12;5.83;;;2.80;;
5904;SDS011;2978;42.012;24.880;2022-07-29T14:40:37;4.30;;;3.10;;
5904;SDS011;2978;42.012;24.880;2022-07-29T14:43:03;3.87;;;2.67;;
5904;SDS011;2978;42.012;24.880;2022-07-29T14:45:28;5.23;;;3.33;;
5904;SDS011;2978;42.012;24.880;2022-07-29T14:47:54;3.73;;;2.47;;
5904;SDS011;2978;42.012;24.880;2022-07-29T14:50:19;10.33;;;2.30;;
5904;SDS011;2978;42.012;24.880;2022-07-29T14:52:45;7.37;;;2.70;;
5904;SDS011;2978;42.012;24.880;2022-07-29T14:55:11;3.93;;;2.13;;
5904;SDS011;2978;42.012;24.880;2022-07-29T14:57:37;8.60;;;2.70;;
5904;SDS011;2978;42.012;24.880;2022-07-29T15:00:03;5.03;;;2.93;;
5904;SDS011;2978;42.012;24.880;2022-07-29T15:02:49;4.87;;;2.77;;
5904;SDS011;2978;42.012;24.880;2022-07-29T15:05:14;6.43;;;2.57;;
5904;SDS011;2978;42.012;24.880;2022-07-29T15:07:40;5.87;;;2.60;;
5904;SDS011;2978;42.012;24.880;2022-07-29T15:10:05;14.40;;;2.90;;
5904;SDS011;2978;42.012;24.880;2022-07-29T15:12:31;5.10;;;2.97;;
5904;SDS011;2978;42.012;24.880;2022-07-29T15:14:57;6.83;;;2.87;;
5904;SDS011;2978;42.012;24.880;2022-07-29T15:17:23;7.33;;;2.63;;
5904;SDS011;2978;42.012;24.880;2022-07-29T15:19:48;6.37;;;2.53;;
5904;SDS011;2978;42.012;24.880;2022-07-29T15:22:14;4.20;;;2.87;;
5904;SDS011;2978;42.012;24.880;2022-07-29T15:24:39;3.80;;;2.60;;
5904;SDS011;2978;42.012;24.880;2022-07-29T15:27:05;2.80;;;2.10;;
5904;SDS011;2978;42.012;24.880;2022-07-29T15:29:30;5.57;;;2.83;;
5904;SDS011;2978;42.012;24.880;2022-07-29T15:31:56;4.47;;;2.67;;
5904;SDS011;2978;42.012;24.880;2022-07-29T15:34:21;3.73;;;2.70;;
5904;SDS011;2978;42.012;24.880;2022-07-29T15:36:48;6.43;;;3.10;;
5904;SDS011;2978;42.012;24.880;2022-07-29T15:39:17;10.53;;;2.60;;